createdAt,value
2018-05-15T00:00:30.513Z,18.20
2018-05-15T00:02:56.788Z,18.20
2018-05-15T00:05:23.048Z,18.20
2018-05-15T00:07:49.284Z,18.10
2018-05-15T00:10:15.709Z,18.10
2018-05-15T00:12:41.983Z,18.00
2018-05-15T00:15:08.232Z,17.90
2018-05-15T00:17:34.521Z,17.80
2018-05-15T00:20:01.563Z,17.60
2018-05-15T00:22:27.829Z,17.60
2018-05-15T00:24:54.842Z,17.50
2018-05-15T00:27:21.115Z,17.50
2018-05-15T00:29:47.407Z,17.40
2018-05-15T00:32:13.677Z,17.40
2018-05-15T00:34:39.936Z,17.40
2018-05-15T00:37:06.971Z,17.30
2018-05-15T00:39:33.226Z,17.20
2018-05-15T00:41:59.475Z,17.30
2018-05-15T00:44:25.726Z,17.30
2018-05-15T00:46:52.088Z,17.30
2018-05-15T00:49:19.068Z,17.10
2018-05-15T00:51:45.299Z,17.20
2018-05-15T00:54:12.343Z,17.00
2018-05-15T00:56:39.351Z,17.00
2018-05-15T00:59:05.625Z,17.00
2018-05-15T01:01:31.961Z,17.00
2018-05-15T01:03:58.293Z,16.90
2018-05-15T01:06:24.556Z,16.70
2018-05-15T01:08:50.812Z,16.80
2018-05-15T01:11:17.161Z,16.70
2018-05-15T01:13:43.478Z,16.60
2018-05-15T01:16:09.807Z,16.60
2018-05-15T01:18:36.043Z,16.50
2018-05-15T01:21:02.308Z,16.40
2018-05-15T01:23:29.323Z,16.30
2018-05-15T01:25:55.573Z,16.30
2018-05-15T01:28:21.852Z,16.20
2018-05-15T01:30:48.831Z,16.10
2018-05-15T01:33:15.091Z,16.00
2018-05-15T01:35:41.355Z,16.00
2018-05-15T01:38:07.640Z,16.00
2018-05-15T01:40:34.792Z,15.90
2018-05-15T01:43:01.040Z,15.90
2018-05-15T01:45:27.297Z,15.90
2018-05-15T01:47:53.572Z,15.90
2018-05-15T01:50:19.808Z,15.80
2018-05-15T01:52:46.055Z,15.80
2018-05-15T01:55:12.301Z,15.70
2018-05-15T01:57:38.548Z,15.60
2018-05-15T02:00:04.801Z,15.50
2018-05-15T02:02:31.065Z,15.40
2018-05-15T02:04:57.291Z,15.40
2018-05-15T02:07:24.285Z,15.30
2018-05-15T02:09:51.348Z,15.30
2018-05-15T02:12:17.588Z,15.30
2018-05-15T02:14:43.839Z,15.30
2018-05-15T02:17:10.091Z,15.20
2018-05-15T02:19:36.417Z,15.20
2018-05-15T02:22:02.656Z,15.10
2018-05-15T02:24:29.688Z,15.10
2018-05-15T02:26:56.695Z,15.00
2018-05-15T02:29:22.976Z,15.10
2018-05-15T02:31:49.972Z,15.00
2018-05-15T02:34:16.216Z,14.90
2018-05-15T02:36:42.458Z,14.90
2018-05-15T02:39:08.708Z,14.90
2018-05-15T02:41:34.961Z,14.90
2018-05-15T02:44:01.214Z,14.80
2018-05-15T02:46:27.493Z,14.80
2018-05-15T02:48:54.495Z,14.90
2018-05-15T02:51:20.768Z,14.80
2018-05-15T02:53:47.049Z,14.80
2018-05-15T02:56:13.341Z,14.80
2018-05-15T02:58:39.575Z,14.70
2018-05-15T03:01:05.844Z,14.70
2018-05-15T03:03:32.153Z,14.80
2018-05-15T03:05:59.899Z,14.70
2018-05-15T03:08:26.219Z,14.70
2018-05-15T03:10:53.225Z,14.60
2018-05-15T03:13:19.474Z,14.60
2018-05-15T03:15:45.705Z,14.60
2018-05-15T03:18:11.947Z,14.60
2018-05-15T03:20:38.216Z,14.60
2018-05-15T03:23:04.491Z,14.50
2018-05-15T03:25:30.778Z,14.50
2018-05-15T03:27:57.087Z,14.40
2018-05-15T03:30:23.347Z,14.40
2018-05-15T03:32:49.576Z,14.40
2018-05-15T03:35:15.828Z,14.40
2018-05-15T03:37:42.008Z,14.20
2018-05-15T03:40:08.260Z,14.20
2018-05-15T03:42:34.515Z,14.20
2018-05-15T03:45:00.796Z,14.30
2018-05-15T03:47:27.072Z,14.20
2018-05-15T03:49:53.332Z,14.30
2018-05-15T03:52:20.336Z,14.20
2018-05-15T03:54:46.628Z,14.20
2018-05-15T03:57:12.882Z,14.10
2018-05-15T03:59:39.168Z,14.00
2018-05-15T04:02:17.689Z,14.00
2018-05-15T04:04:56.414Z,14.00
2018-05-15T04:07:35.034Z,14.10
2018-05-15T04:10:01.339Z,14.10
2018-05-15T04:12:27.924Z,14.10
2018-05-15T04:14:55.274Z,14.10
2018-05-15T04:17:22.288Z,14.20
2018-05-15T04:19:48.553Z,14.20
2018-05-15T04:22:14.817Z,14.30
2018-05-15T04:24:41.839Z,14.30
2018-05-15T04:27:08.687Z,14.30
2018-05-15T04:29:35.033Z,14.30
2018-05-15T04:32:01.309Z,14.40
2018-05-15T04:34:28.316Z,14.60
2018-05-15T04:36:54.589Z,14.50
2018-05-15T04:39:21.632Z,14.80
2018-05-15T04:41:47.909Z,14.80
2018-05-15T04:44:14.921Z,15.00
2018-05-15T04:46:41.187Z,14.90
2018-05-15T04:49:07.569Z,15.00
2018-05-15T04:51:34.563Z,15.00
2018-05-15T04:54:01.532Z,15.00
2018-05-15T04:56:28.551Z,15.10
2018-05-15T04:58:54.888Z,15.00
2018-05-15T05:01:21.894Z,15.10
2018-05-15T05:03:48.156Z,15.10
2018-05-15T05:06:14.489Z,15.10
2018-05-15T05:08:40.740Z,15.20
2018-05-15T05:11:07.186Z,15.20
2018-05-15T05:13:33.445Z,15.30
2018-05-15T05:16:00.459Z,15.90
2018-05-15T05:18:26.730Z,15.80
2018-05-15T05:20:53.000Z,16.40
2018-05-15T05:23:19.264Z,17.10
2018-05-15T05:25:45.615Z,18.00
2018-05-15T05:28:11.888Z,18.90
2018-05-15T05:30:38.159Z,19.90
2018-05-15T05:33:04.419Z,21.10
2018-05-15T05:35:31.475Z,22.20
2018-05-15T05:37:57.824Z,22.20
2018-05-15T05:40:24.219Z,22.70
2018-05-15T05:42:50.496Z,22.80
2018-05-15T05:45:16.784Z,22.80
2018-05-15T05:47:43.065Z,22.60
2018-05-15T05:50:10.063Z,22.20
2018-05-15T05:52:36.331Z,22.10
2018-05-15T05:55:02.678Z,21.20
2018-05-15T05:57:28.965Z,20.80
2018-05-15T05:59:55.206Z,20.30
2018-05-15T06:02:22.201Z,19.70
2018-05-15T06:04:48.469Z,19.70
2018-05-15T06:07:14.742Z,19.40
2018-05-15T06:09:40.981Z,19.20
2018-05-15T06:12:09.056Z,18.90
2018-05-15T06:14:36.068Z,18.70
2018-05-15T06:17:02.135Z,18.60
2018-05-15T06:19:28.218Z,18.70
2018-05-15T06:21:54.495Z,18.50
2018-05-15T06:24:20.750Z,18.40
2018-05-15T06:26:47.007Z,18.30
2018-05-15T06:29:13.375Z,18.20
2018-05-15T06:31:39.768Z,18.00
2018-05-15T06:34:06.008Z,17.90
2018-05-15T06:36:32.291Z,17.70
2018-05-15T06:38:59.293Z,17.80
2018-05-15T06:41:25.569Z,17.80
2018-05-15T06:43:51.861Z,17.90
2018-05-15T06:46:18.135Z,18.00
2018-05-15T06:48:44.413Z,18.10
2018-05-15T06:51:10.688Z,18.30
2018-05-15T06:53:36.965Z,18.40
2018-05-15T06:56:03.225Z,18.40
2018-05-15T06:58:30.347Z,18.10
2018-05-15T07:00:56.625Z,18.10
2018-05-15T07:03:22.868Z,18.30
2018-05-15T07:05:49.153Z,18.50
2018-05-15T07:08:15.490Z,18.50
2018-05-15T07:10:41.685Z,18.50
2018-05-15T07:13:07.973Z,18.50
2018-05-15T07:15:34.258Z,18.40
2018-05-15T07:18:00.536Z,18.40
2018-05-15T07:20:26.911Z,18.30
2018-05-15T07:22:53.185Z,18.40
2018-05-15T07:25:19.451Z,18.40
2018-05-15T07:27:45.709Z,18.60
2018-05-15T07:30:11.976Z,18.80
2018-05-15T07:32:38.251Z,19.00
2018-05-15T07:35:04.522Z,19.00
2018-05-15T07:37:31.532Z,19.00
2018-05-15T07:39:58.792Z,19.00
2018-05-15T07:42:25.035Z,19.10
2018-05-15T07:44:51.325Z,19.10
2018-05-15T07:47:17.894Z,19.00
2018-05-15T07:49:44.180Z,18.80
2018-05-15T07:52:10.429Z,19.00
2018-05-15T07:54:36.709Z,19.10
2018-05-15T07:57:03.003Z,19.20
2018-05-15T07:59:29.271Z,19.40
2018-05-15T08:01:55.616Z,19.70
2018-05-15T08:04:22.651Z,19.80
2018-05-15T08:06:48.891Z,19.80
2018-05-15T08:09:15.158Z,19.90
2018-05-15T08:11:42.164Z,20.10
2018-05-15T08:14:08.423Z,20.00
2018-05-15T08:16:34.692Z,20.20
2018-05-15T08:19:01.719Z,20.30
2018-05-15T08:21:28.009Z,20.20
2018-05-15T08:23:54.272Z,20.20
2018-05-15T08:26:21.256Z,20.20
2018-05-15T08:28:47.496Z,20.20
2018-05-15T08:31:13.761Z,20.20
2018-05-15T08:33:40.152Z,20.30
2018-05-15T08:36:07.176Z,20.30
2018-05-15T08:38:33.443Z,20.30
2018-05-15T08:40:59.691Z,20.10
2018-05-15T08:43:26.772Z,20.10
2018-05-15T08:45:52.827Z,20.10
2018-05-15T08:48:18.900Z,20.10
2018-05-15T08:50:45.160Z,20.20
2018-05-15T08:53:12.176Z,20.10
2018-05-15T08:55:38.460Z,20.10
2018-05-15T08:58:04.812Z,20.10
2018-05-15T09:00:31.827Z,20.20
2018-05-15T09:02:58.109Z,20.10
2018-05-15T09:05:25.104Z,20.30
2018-05-15T09:07:51.642Z,20.30
2018-05-15T09:10:17.922Z,20.50
2018-05-15T09:12:44.167Z,20.80
2018-05-15T09:15:10.444Z,20.80
2018-05-15T09:17:37.462Z,21.20
2018-05-15T09:20:03.564Z,21.20
2018-05-15T09:22:29.852Z,21.20
2018-05-15T09:24:56.876Z,21.20
2018-05-15T09:27:23.156Z,21.20
2018-05-15T09:29:50.166Z,21.50
2018-05-15T09:32:16.421Z,21.50
2018-05-15T09:34:42.724Z,21.50
2018-05-15T09:37:09.724Z,21.80
2018-05-15T09:39:37.229Z,21.90
2018-05-15T09:42:03.495Z,21.90
2018-05-15T09:44:30.485Z,22.20
2018-05-15T09:46:56.768Z,22.10
2018-05-15T09:49:23.017Z,22.40
2018-05-15T09:51:49.294Z,22.30
2018-05-15T09:54:15.591Z,22.30
2018-05-15T09:56:41.844Z,22.20
2018-05-15T09:59:12.672Z,22.30
2018-05-15T10:01:38.952Z,22.60
2018-05-15T10:04:05.236Z,22.80
2018-05-15T10:06:31.523Z,23.00
2018-05-15T10:08:58.543Z,23.10
2018-05-15T10:11:25.060Z,23.00
2018-05-15T10:13:51.359Z,23.30
2018-05-15T10:16:19.541Z,23.10
2018-05-15T10:18:48.005Z,23.10
2018-05-15T10:21:14.992Z,23.10
2018-05-15T10:23:41.260Z,23.10
2018-05-15T10:26:07.527Z,23.00
2018-05-15T10:28:33.817Z,23.00
2018-05-15T10:31:00.804Z,23.20
2018-05-15T10:33:30.227Z,23.20
2018-05-15T10:35:56.489Z,23.50
2018-05-15T10:38:22.829Z,23.90
2018-05-15T10:40:50.564Z,24.40
2018-05-15T10:43:16.819Z,24.40
2018-05-15T10:45:43.081Z,24.60
2018-05-15T10:48:14.184Z,24.40
2018-05-15T10:50:40.500Z,24.60
2018-05-15T10:53:06.761Z,24.30
2018-05-15T10:55:33.172Z,24.30
2018-05-15T10:57:59.508Z,24.40
2018-05-15T11:00:25.783Z,24.50
2018-05-15T11:02:52.268Z,24.80
2018-05-15T11:05:18.544Z,25.10
2018-05-15T11:07:49.294Z,25.00
2018-05-15T11:10:15.557Z,24.90
2018-05-15T11:12:41.892Z,24.90
2018-05-15T11:15:08.878Z,25.60
2018-05-15T11:17:35.132Z,25.60
2018-05-15T11:20:13.677Z,25.60
2018-05-15T11:22:52.231Z,25.50
2018-05-15T11:25:19.620Z,25.20
2018-05-15T11:27:45.872Z,24.90
2018-05-15T11:30:12.131Z,24.80
2018-05-15T11:32:40.805Z,25.30
2018-05-15T11:35:07.074Z,25.30
2018-05-15T11:37:33.324Z,25.30
2018-05-15T11:39:59.581Z,25.30
2018-05-15T11:42:26.588Z,25.70
2018-05-15T11:44:52.856Z,25.70
2018-05-15T11:47:19.951Z,26.00
2018-05-15T11:49:49.979Z,26.10
2018-05-15T11:52:16.161Z,26.20
2018-05-15T11:54:41.493Z,25.70
2018-05-15T11:57:07.760Z,25.90
2018-05-15T11:59:34.102Z,25.90
2018-05-15T12:02:00.571Z,25.90
2018-05-15T12:04:27.592Z,26.20
2018-05-15T12:06:58.753Z,26.20
2018-05-15T12:09:25.815Z,25.70
2018-05-15T12:11:52.337Z,25.70
2018-05-15T12:14:18.602Z,25.70
2018-05-15T12:16:44.879Z,25.90
2018-05-15T12:19:11.188Z,26.00
2018-05-15T12:21:37.616Z,26.20
2018-05-15T12:24:08.660Z,25.90
2018-05-15T12:26:35.652Z,25.90
2018-05-15T12:29:01.966Z,25.90
2018-05-15T12:31:28.960Z,26.50
2018-05-15T12:33:55.325Z,26.40
2018-05-15T12:36:21.857Z,26.70
2018-05-15T12:38:47.952Z,26.70
2018-05-15T12:41:14.835Z,26.10
2018-05-15T12:43:44.179Z,26.10
2018-05-15T12:46:10.428Z,26.30
2018-05-15T12:48:36.807Z,26.60
2018-05-15T12:51:03.723Z,26.10
2018-05-15T12:53:29.994Z,26.20
2018-05-15T12:55:57.083Z,25.10
2018-05-15T12:58:23.351Z,25.00
2018-05-15T13:00:52.195Z,25.10
2018-05-15T13:03:19.369Z,25.40
2018-05-15T13:05:45.628Z,25.70
2018-05-15T13:08:11.924Z,25.90
2018-05-15T13:10:38.184Z,26.00
2018-05-15T13:13:04.461Z,26.10
2018-05-15T13:15:30.941Z,26.30
2018-05-15T13:17:57.260Z,26.30
2018-05-15T13:20:28.462Z,26.10
2018-05-15T13:22:54.730Z,26.10
2018-05-15T13:25:20.980Z,26.10
2018-05-15T13:27:48.086Z,25.90
2018-05-15T13:30:14.397Z,25.90
2018-05-15T13:32:40.716Z,25.30
2018-05-15T13:35:06.964Z,24.90
2018-05-15T13:37:36.692Z,25.00
2018-05-15T13:40:05.381Z,25.30
2018-05-15T13:42:31.632Z,25.30
2018-05-15T13:44:57.893Z,25.50
2018-05-15T13:47:24.161Z,25.70
2018-05-15T13:49:51.196Z,25.80
2018-05-15T13:52:17.488Z,25.80
2018-05-15T13:54:43.763Z,26.00
2018-05-15T13:57:10.012Z,26.10
2018-05-15T13:59:36.267Z,26.30
2018-05-15T14:02:02.616Z,26.50
2018-05-15T14:04:28.956Z,26.40
2018-05-15T14:06:55.996Z,26.90
2018-05-15T14:09:22.226Z,26.90
2018-05-15T14:11:48.532Z,26.90
2018-05-15T14:14:14.844Z,26.70
2018-05-15T14:16:41.072Z,26.70
2018-05-15T14:19:07.326Z,26.50
2018-05-15T14:21:33.568Z,26.30
2018-05-15T14:23:59.925Z,25.80
2018-05-15T14:26:26.151Z,25.90
2018-05-15T14:28:52.813Z,25.90
2018-05-15T14:31:19.874Z,26.10
2018-05-15T14:33:46.153Z,26.10
2018-05-15T14:36:12.640Z,26.40
2018-05-15T14:38:38.951Z,26.20
2018-05-15T14:41:05.211Z,26.00
2018-05-15T14:43:31.477Z,25.90
2018-05-15T14:45:58.503Z,25.70
2018-05-15T14:48:24.812Z,25.70
2018-05-15T14:54:06.207Z,25.70
2018-05-15T14:56:33.090Z,26.00
2018-05-15T14:58:59.172Z,26.00
2018-05-15T15:01:25.370Z,26.30
2018-05-15T15:03:51.447Z,26.30
2018-05-15T15:06:17.498Z,26.30
2018-05-15T15:08:43.548Z,25.80
2018-05-15T15:11:09.646Z,25.50
2018-05-15T15:13:35.747Z,25.50
2018-05-15T15:16:02.560Z,25.50
2018-05-15T15:18:28.615Z,25.50
2018-05-15T15:20:54.677Z,25.60
2018-05-15T15:23:24.185Z,25.50
2018-05-15T15:25:50.317Z,25.50
2018-05-15T15:28:17.112Z,25.20
2018-05-15T15:30:43.162Z,25.20
2018-05-15T15:33:09.229Z,25.40
2018-05-15T15:35:35.295Z,25.30
2018-05-15T15:38:02.110Z,25.20
2018-05-15T15:40:28.159Z,25.20
2018-05-15T15:42:54.250Z,25.10
2018-05-15T15:45:20.308Z,24.90
2018-05-15T15:47:46.360Z,24.90
2018-05-15T15:50:12.479Z,24.90
2018-05-15T15:52:38.521Z,24.90
2018-05-15T15:55:04.587Z,24.80
2018-05-15T15:57:31.380Z,24.90
2018-05-15T15:59:57.420Z,24.90
2018-05-15T16:02:23.525Z,24.80
2018-05-15T16:04:50.320Z,24.70
2018-05-15T16:07:16.382Z,24.70
2018-05-15T16:09:42.510Z,24.80
2018-05-15T16:12:08.471Z,24.60
2018-05-15T16:14:34.523Z,24.50
2018-05-15T16:17:00.578Z,24.40
2018-05-15T16:19:26.623Z,24.40
2018-05-15T16:21:52.708Z,24.50
2018-05-15T16:24:19.048Z,24.60
2018-05-15T16:26:45.291Z,24.60
2018-05-15T16:29:11.591Z,24.40
2018-05-15T16:31:37.880Z,24.30
2018-05-15T16:34:04.136Z,24.20
2018-05-15T16:36:31.137Z,24.40
2018-05-15T16:38:57.455Z,24.40
2018-05-15T16:41:23.765Z,24.40
2018-05-15T16:43:50.033Z,24.30
2018-05-15T16:46:16.296Z,24.30
2018-05-15T16:48:42.657Z,24.20
2018-05-15T16:51:08.932Z,24.10
2018-05-15T16:53:35.201Z,23.90
2018-05-15T16:56:01.486Z,24.10
2018-05-15T16:58:27.755Z,23.90
2018-05-15T17:00:54.017Z,23.80
2018-05-15T17:03:20.283Z,23.80
2018-05-15T17:05:46.552Z,23.90
2018-05-15T17:08:12.860Z,23.80
2018-05-15T17:10:39.100Z,23.90
2018-05-15T17:13:05.408Z,23.80
2018-05-15T17:15:31.680Z,23.90
2018-05-15T17:17:58.971Z,23.80
2018-05-15T17:20:25.232Z,23.80
2018-05-15T17:22:52.245Z,24.00
2018-05-15T17:25:18.611Z,24.20
2018-05-15T17:27:45.604Z,24.10
2018-05-15T17:30:11.876Z,24.10
2018-05-15T17:32:38.120Z,23.80
2018-05-15T17:35:04.376Z,23.80
2018-05-15T17:37:31.398Z,23.80
2018-05-15T17:39:57.728Z,23.80
2018-05-15T17:42:24.006Z,23.80
2018-05-15T17:44:50.269Z,23.80
2018-05-15T17:47:16.656Z,23.80
2018-05-15T17:49:43.633Z,23.80
2018-05-15T17:52:09.895Z,23.70
2018-05-15T17:57:03.830Z,23.60
2018-05-15T17:59:30.145Z,23.60
2018-05-15T18:01:56.392Z,23.60
2018-05-15T18:04:22.659Z,23.80
2018-05-15T18:06:49.773Z,23.70
2018-05-15T18:09:16.048Z,23.70
2018-05-15T18:11:42.448Z,23.70
2018-05-15T18:14:08.796Z,23.60
2018-05-15T18:16:35.104Z,23.70
2018-05-15T18:19:04.006Z,23.60
2018-05-15T18:21:30.893Z,23.50
2018-05-15T18:23:56.949Z,23.50
2018-05-15T18:26:23.427Z,23.40
2018-05-15T18:28:50.229Z,23.40
2018-05-15T18:31:16.293Z,23.40
2018-05-15T18:33:42.599Z,23.40
2018-05-15T18:36:08.855Z,23.50
2018-05-15T18:38:35.128Z,23.50
2018-05-15T18:41:01.414Z,23.40
2018-05-15T18:43:27.691Z,23.40
2018-05-15T18:45:54.018Z,23.20
2018-05-15T18:48:20.328Z,23.30
2018-05-15T18:50:46.693Z,23.10
2018-05-15T18:53:12.993Z,23.00
2018-05-15T18:55:39.992Z,23.00
2018-05-15T18:58:06.264Z,23.00
2018-05-15T19:00:32.515Z,22.70
2018-05-15T19:02:58.798Z,22.80
2018-05-15T19:05:25.792Z,22.80
2018-05-15T19:07:52.245Z,22.80
2018-05-15T19:10:18.489Z,22.80
2018-05-15T19:12:44.755Z,22.70
2018-05-15T19:15:11.004Z,22.60
2018-05-15T19:17:38.025Z,22.40
2018-05-15T19:20:04.655Z,22.40
2018-05-15T19:22:32.103Z,22.40
2018-05-15T19:24:58.402Z,22.40
2018-05-15T19:27:24.763Z,22.20
2018-05-15T19:29:51.785Z,22.10
2018-05-15T19:32:18.211Z,22.10
2018-05-15T19:34:50.671Z,22.10
2018-05-15T19:37:16.996Z,22.00
2018-05-15T19:39:43.408Z,22.00
2018-05-15T19:42:09.723Z,21.90
2018-05-15T19:44:35.976Z,21.80
2018-05-15T19:47:02.382Z,21.80
2018-05-15T19:49:29.436Z,21.70
2018-05-15T19:51:56.445Z,21.70
2018-05-15T19:54:22.715Z,21.60
2018-05-15T19:56:49.466Z,21.60
2018-05-15T19:59:15.720Z,21.40
2018-05-15T20:01:42.061Z,21.40
2018-05-15T20:04:08.337Z,21.30
2018-05-15T20:06:34.772Z,21.20
2018-05-15T20:09:01.131Z,21.10
2018-05-15T20:11:27.370Z,21.00
2018-05-15T20:13:53.634Z,21.00
2018-05-15T20:16:19.944Z,20.80
2018-05-15T20:18:47.019Z,20.80
2018-05-15T20:21:13.326Z,20.70
2018-05-15T20:23:39.727Z,20.70
2018-05-15T20:26:06.845Z,20.60
2018-05-15T20:28:33.841Z,20.50
2018-05-15T20:31:00.237Z,20.50
2018-05-15T20:33:27.973Z,20.40
2018-05-15T20:35:54.285Z,20.40
2018-05-15T20:38:20.632Z,20.40
2018-05-15T20:43:44.048Z,20.40
2018-05-15T20:46:11.046Z,20.40
2018-05-15T20:48:38.107Z,20.40
2018-05-15T20:51:04.619Z,20.40
2018-05-15T20:53:30.932Z,20.40
2018-05-15T20:55:57.939Z,20.50
2018-05-15T20:58:25.029Z,20.40
2018-05-15T21:00:51.462Z,20.50
2018-05-15T21:03:18.024Z,20.40
2018-05-15T21:05:44.385Z,20.40
2018-05-15T21:08:10.776Z,20.40
2018-05-15T21:10:37.167Z,20.30
2018-05-15T21:13:04.491Z,20.50
2018-05-15T21:15:31.535Z,20.50
2018-05-15T21:17:58.859Z,20.50
2018-05-15T21:20:25.371Z,20.40
2018-05-15T21:22:51.685Z,20.50
2018-05-15T21:25:17.985Z,20.40
2018-05-15T21:27:44.243Z,20.30
2018-05-15T21:30:10.531Z,20.30
2018-05-15T21:32:36.850Z,20.20
2018-05-15T21:35:03.840Z,20.30
2018-05-15T21:37:30.112Z,20.30
2018-05-15T21:39:56.417Z,20.20
2018-05-15T21:42:23.556Z,20.10
2018-05-15T21:44:50.564Z,20.20
2018-05-15T21:47:17.775Z,20.20
2018-05-15T21:49:43.959Z,20.20
2018-05-15T21:52:10.211Z,20.30
2018-05-15T21:54:36.501Z,20.30
2018-05-15T21:57:02.849Z,20.30
2018-05-15T21:59:29.104Z,20.20
2018-05-15T22:01:55.367Z,20.20
2018-05-15T22:04:22.375Z,20.20
2018-05-15T22:06:48.632Z,20.20
2018-05-15T22:09:14.944Z,20.20
2018-05-15T22:11:53.439Z,20.20
2018-05-15T22:14:32.069Z,20.20
2018-05-15T22:17:10.567Z,20.00
2018-05-15T22:19:49.308Z,20.10
2018-05-15T22:22:15.444Z,20.00
2018-05-15T22:24:41.805Z,20.00
2018-05-15T22:27:08.050Z,20.00
2018-05-15T22:29:34.287Z,20.00
2018-05-15T22:32:00.562Z,19.90
2018-05-15T22:34:26.821Z,19.80
2018-05-15T22:36:53.808Z,19.90
2018-05-15T22:39:20.140Z,19.90
2018-05-15T22:41:47.122Z,19.90
2018-05-15T22:44:13.387Z,19.90
2018-05-15T22:46:39.623Z,19.90
2018-05-15T22:49:05.923Z,19.90
2018-05-15T22:51:32.930Z,19.90
2018-05-15T22:53:59.209Z,19.80
2018-05-15T22:56:26.287Z,19.80
2018-05-15T22:58:55.519Z,19.80
2018-05-15T23:01:21.751Z,19.70
2018-05-15T23:03:48.772Z,19.60
2018-05-15T23:06:15.824Z,19.70
2018-05-15T23:08:42.636Z,19.60
2018-05-15T23:11:09.483Z,19.70
2018-05-15T23:13:36.348Z,19.60
2018-05-15T23:16:02.392Z,19.60
2018-05-15T23:18:28.427Z,19.60
2018-05-15T23:20:54.483Z,19.50
2018-05-15T23:23:20.701Z,19.50
2018-05-15T23:25:46.975Z,19.50
2018-05-15T23:28:13.194Z,19.40
2018-05-15T23:30:39.435Z,19.30
2018-05-15T23:33:05.675Z,19.20
2018-05-15T23:35:31.967Z,19.20
2018-05-15T23:37:58.931Z,19.00
2018-05-15T23:40:25.232Z,19.00
2018-05-15T23:42:51.487Z,19.10
2018-05-15T23:45:17.789Z,19.10
2018-05-15T23:47:44.012Z,19.00
2018-05-15T23:50:10.375Z,18.90
2018-05-15T23:52:36.592Z,18.70
2018-05-15T23:55:02.823Z,18.80
2018-05-15T23:57:29.058Z,18.80
2018-05-15T23:59:56.011Z,18.60
